createdAt,value
2018-04-02T00:01:14.307Z,5.40
2018-04-02T00:03:40.295Z,5.40
2018-04-02T00:06:06.985Z,5.10
2018-04-02T00:08:32.970Z,5.10
2018-04-02T00:10:58.928Z,5.10
2018-04-02T00:13:24.891Z,5.10
2018-04-02T00:15:51.655Z,5.30
2018-04-02T00:18:17.589Z,5.30
2018-04-02T00:20:43.554Z,5.30
2018-04-02T00:23:10.273Z,5.20
2018-04-02T00:25:36.249Z,5.20
2018-04-02T00:28:02.224Z,5.10
2018-04-02T00:30:28.163Z,5.10
2018-04-02T00:32:54.859Z,5.10
2018-04-02T00:35:20.814Z,5.10
2018-04-02T00:37:47.523Z,5.00
2018-04-02T00:40:13.507Z,5.00
2018-04-02T00:42:39.503Z,5.20
2018-04-02T00:45:05.508Z,5.10
2018-04-02T00:47:32.185Z,5.20
2018-04-02T00:49:58.136Z,5.20
2018-04-02T00:52:24.092Z,5.20
2018-04-02T00:54:50.043Z,5.00
2018-04-02T00:57:16.003Z,5.10
2018-04-02T00:59:42.745Z,5.30
2018-04-02T01:02:10.225Z,5.20
2018-04-02T01:04:36.175Z,5.20
2018-04-02T01:07:02.114Z,5.10
2018-04-02T01:09:28.065Z,5.00
2018-04-02T01:11:54.750Z,4.90
2018-04-02T01:14:20.747Z,4.80
2018-04-02T01:16:46.701Z,4.80
2018-04-02T01:19:12.670Z,4.80
2018-04-02T01:21:38.680Z,4.80
2018-04-02T01:24:04.634Z,4.90
2018-04-02T01:26:30.594Z,4.80
2018-04-02T01:28:57.307Z,4.70
2018-04-02T01:31:23.247Z,4.70
2018-04-02T01:33:49.954Z,5.10
2018-04-02T01:36:16.476Z,5.10
2018-04-02T01:38:42.426Z,5.20
2018-04-02T01:41:08.391Z,5.20
2018-04-02T01:43:35.243Z,5.20
2018-04-02T01:46:01.212Z,5.20
2018-04-02T01:48:27.891Z,5.30
2018-04-02T01:50:53.844Z,5.30
2018-04-02T01:53:19.796Z,5.10
2018-04-02T01:55:46.532Z,5.00
2018-04-02T01:58:13.235Z,4.90
2018-04-02T02:00:39.197Z,4.90
2018-04-02T02:03:05.162Z,4.80
2018-04-02T02:05:31.152Z,4.80
2018-04-02T02:07:57.891Z,5.00
2018-04-02T02:10:23.847Z,5.00
2018-04-02T02:12:49.794Z,5.00
2018-04-02T02:15:16.499Z,5.10
2018-04-02T02:17:42.444Z,5.10
2018-04-02T02:20:09.374Z,5.00
2018-04-02T02:22:36.095Z,5.00
2018-04-02T02:25:02.062Z,5.00
2018-04-02T02:27:28.035Z,4.90
2018-04-02T02:29:53.990Z,4.80
2018-04-02T02:32:19.937Z,4.80
2018-04-02T02:34:46.558Z,4.80
2018-04-02T02:37:12.516Z,4.80
2018-04-02T02:39:38.465Z,4.90
2018-04-02T02:42:05.193Z,5.00
2018-04-02T02:44:31.963Z,4.90
2018-04-02T02:46:57.928Z,4.90
2018-04-02T02:49:23.893Z,4.80
2018-04-02T02:51:49.921Z,4.90
2018-04-02T02:54:15.881Z,4.90
2018-04-02T02:56:41.840Z,4.80
2018-04-02T02:59:07.793Z,4.80
2018-04-02T03:01:33.738Z,4.80
2018-04-02T03:03:59.713Z,4.90
2018-04-02T03:06:25.673Z,4.80
2018-04-02T03:08:51.643Z,4.70
2018-04-02T03:11:17.620Z,4.60
2018-04-02T03:13:44.587Z,4.70
2018-04-02T03:16:11.276Z,4.60
2018-04-02T03:18:38.330Z,4.60
2018-04-02T03:21:04.240Z,4.60
2018-04-02T03:23:30.212Z,4.70
2018-04-02T03:25:56.178Z,4.70
2018-04-02T03:28:22.148Z,4.90
2018-04-02T03:30:48.133Z,4.90
2018-04-02T03:33:14.107Z,4.80
2018-04-02T03:35:40.075Z,4.70
2018-04-02T03:38:06.010Z,4.70
2018-04-02T03:40:32.739Z,4.70
2018-04-02T03:42:59.489Z,4.60
2018-04-02T03:45:25.440Z,4.60
2018-04-02T03:47:51.404Z,4.70
2018-04-02T03:50:18.119Z,4.60
2018-04-02T03:52:44.089Z,4.60
2018-04-02T03:55:10.086Z,4.70
2018-04-02T03:57:36.808Z,4.90
2018-04-02T04:00:02.751Z,4.90
2018-04-02T04:02:29.461Z,4.90
2018-04-02T04:04:55.413Z,4.90
2018-04-02T04:07:21.364Z,4.90
2018-04-02T04:09:47.307Z,4.90
2018-04-02T04:12:13.253Z,5.00
2018-04-02T04:14:39.963Z,4.90
2018-04-02T04:17:05.981Z,4.90
2018-04-02T04:19:31.931Z,4.80
2018-04-02T04:21:58.681Z,4.80
2018-04-02T04:24:25.694Z,4.70
2018-04-02T04:26:52.482Z,4.70
2018-04-02T04:29:18.433Z,4.70
2018-04-02T04:31:44.399Z,4.70
2018-04-02T04:34:10.325Z,4.80
2018-04-02T04:36:36.262Z,4.70
2018-04-02T04:39:02.242Z,4.70
2018-04-02T04:41:28.265Z,4.60
2018-04-02T04:43:54.208Z,4.60
2018-04-02T04:46:20.145Z,4.60
2018-04-02T04:48:46.140Z,4.60
2018-04-02T04:51:12.120Z,4.70
2018-04-02T04:53:38.796Z,4.80
2018-04-02T04:56:04.770Z,4.80
2018-04-02T04:58:31.474Z,4.60
2018-04-02T05:00:57.429Z,4.60
2018-04-02T05:03:24.149Z,4.40
2018-04-02T05:05:50.092Z,4.40
2018-04-02T05:08:16.803Z,4.60
2018-04-02T05:10:42.767Z,4.60
2018-04-02T05:13:08.727Z,4.50
2018-04-02T05:15:34.693Z,4.50
2018-04-02T05:18:00.671Z,4.40
2018-04-02T05:20:26.684Z,4.50
2018-04-02T05:22:53.611Z,4.40
2018-04-02T05:25:19.532Z,4.30
2018-04-02T05:27:50.233Z,4.40
2018-04-02T05:30:16.208Z,4.40
2018-04-02T05:32:42.894Z,4.40
2018-04-02T05:35:08.865Z,4.40
2018-04-02T05:37:35.562Z,4.40
2018-04-02T05:40:01.531Z,4.40
2018-04-02T05:42:28.261Z,4.50
2018-04-02T05:44:54.944Z,4.50
2018-04-02T05:47:20.877Z,4.50
2018-04-02T05:49:46.813Z,4.50
2018-04-02T05:52:12.784Z,4.50
2018-04-02T05:54:38.756Z,4.40
2018-04-02T05:57:04.700Z,4.40
2018-04-02T05:59:31.413Z,4.40
2018-04-02T06:01:57.365Z,4.40
2018-04-02T06:04:23.297Z,4.40
2018-04-02T06:06:49.267Z,4.40
2018-04-02T06:09:15.217Z,4.40
2018-04-02T06:11:41.195Z,4.40
2018-04-02T06:14:07.163Z,4.40
2018-04-02T06:16:33.087Z,4.40
2018-04-02T06:18:59.051Z,4.40
2018-04-02T06:21:24.984Z,4.30
2018-04-02T06:23:52.556Z,4.40
2018-04-02T06:26:19.265Z,4.40
2018-04-02T06:28:45.209Z,4.40
2018-04-02T06:31:11.892Z,4.40
2018-04-02T06:33:37.841Z,4.40
2018-04-02T06:36:03.782Z,4.40
2018-04-02T06:38:38.000Z,4.40
2018-04-02T06:41:03.972Z,4.40
2018-04-02T06:43:31.599Z,4.50
2018-04-02T06:45:59.765Z,4.40
2018-04-02T06:48:46.352Z,4.40
2018-04-02T06:51:12.329Z,4.50
2018-04-02T06:53:39.963Z,4.40
2018-04-02T06:56:06.488Z,4.40
2018-04-02T06:58:33.445Z,4.60
2018-04-02T07:01:01.131Z,4.60
2018-04-02T07:03:27.857Z,4.60
2018-04-02T07:05:53.816Z,4.50
2018-04-02T07:11:40.500Z,4.50
2018-04-02T07:14:07.272Z,4.50
2018-04-02T07:16:33.240Z,4.60
2018-04-02T07:18:59.272Z,4.60
2018-04-02T07:21:25.268Z,4.50
2018-04-02T07:26:33.701Z,4.70
2018-04-02T07:29:10.288Z,4.70
2018-04-02T07:31:38.649Z,4.80
2018-04-02T07:34:11.241Z,4.70
2018-04-02T07:36:41.998Z,4.90
2018-04-02T07:39:09.912Z,4.90
2018-04-02T07:41:50.949Z,5.00
2018-04-02T07:44:20.420Z,5.10
2018-04-02T07:46:46.391Z,5.20
2018-04-02T07:49:13.571Z,5.20
2018-04-02T07:51:40.982Z,5.10
2018-04-02T07:54:07.037Z,5.10
2018-04-02T07:56:33.964Z,5.20
2018-04-02T07:58:59.955Z,5.30
2018-04-02T08:01:30.390Z,5.20
2018-04-02T08:03:56.446Z,5.20
2018-04-02T08:06:23.194Z,5.30
2018-04-02T08:11:23.144Z,5.40
2018-04-02T08:14:06.625Z,5.40
2018-04-02T08:16:32.628Z,5.50
2018-04-02T08:18:58.592Z,5.50
2018-04-02T08:21:25.654Z,5.50
2018-04-02T08:23:53.990Z,5.50
2018-04-02T08:26:25.657Z,5.50
2018-04-02T08:28:51.704Z,5.50
2018-04-02T08:31:17.718Z,5.50
2018-04-02T08:36:33.066Z,5.60
2018-04-02T08:38:59.480Z,5.70
2018-04-02T08:41:25.646Z,5.80
2018-04-02T08:43:52.588Z,5.80
2018-04-02T08:46:18.543Z,5.90
2018-04-02T08:48:45.904Z,5.90
2018-04-02T08:51:12.122Z,6.00
2018-04-02T08:53:38.120Z,6.00
2018-04-02T08:56:04.112Z,6.20
2018-04-02T08:58:32.823Z,6.30
2018-04-02T09:00:58.805Z,6.20
2018-04-02T09:03:25.515Z,6.40
2018-04-02T09:05:51.506Z,6.40
2018-04-02T09:08:18.522Z,6.50
2018-04-02T09:10:44.540Z,6.50
2018-04-02T09:13:11.495Z,6.60
2018-04-02T09:15:37.564Z,6.60
2018-04-02T09:18:04.571Z,6.60
2018-04-02T09:20:30.656Z,6.60
2018-04-02T09:22:57.369Z,6.70
2018-04-02T09:25:23.379Z,6.60
2018-04-02T09:27:52.743Z,6.60
2018-04-02T09:30:19.345Z,6.70
2018-04-02T09:32:45.335Z,6.70
2018-04-02T09:35:11.299Z,6.70
2018-04-02T09:37:37.274Z,6.70
2018-04-02T09:40:03.865Z,6.70
2018-04-02T09:45:46.127Z,6.80
2018-04-02T09:48:12.826Z,6.80
2018-04-02T09:50:38.776Z,6.80
2018-04-02T09:53:04.725Z,6.80
2018-04-02T09:55:30.725Z,6.90
2018-04-02T09:57:57.459Z,6.90
2018-04-02T10:00:30.483Z,6.90
2018-04-02T10:02:56.461Z,6.90
2018-04-02T10:05:23.500Z,7.00
2018-04-02T10:07:50.769Z,6.90
2018-04-02T10:10:16.809Z,7.00
2018-04-02T10:12:43.486Z,7.00
2018-04-02T10:15:09.447Z,7.00
2018-04-02T10:17:37.042Z,7.00
2018-04-02T10:20:09.670Z,7.10
2018-04-02T10:22:36.373Z,7.20
2018-04-02T10:25:05.944Z,7.20
2018-04-02T10:27:36.179Z,7.20
2018-04-02T10:30:03.455Z,7.20
2018-04-02T10:32:31.828Z,7.30
2018-04-02T10:35:01.126Z,7.30
2018-04-02T10:37:29.314Z,7.30
2018-04-02T10:39:56.088Z,7.30
2018-04-02T10:42:25.031Z,7.30
2018-04-02T10:44:51.584Z,7.40
2018-04-02T10:47:18.280Z,7.40
2018-04-02T10:49:44.285Z,7.50
2018-04-02T10:52:37.860Z,7.50
2018-04-02T10:55:07.414Z,7.50
2018-04-02T10:57:33.381Z,7.60
2018-04-02T10:59:59.456Z,7.60
2018-04-02T11:02:25.451Z,7.60
2018-04-02T11:04:52.166Z,7.70
2018-04-02T11:07:18.792Z,7.70
2018-04-02T11:09:44.860Z,7.80
2018-04-02T11:12:10.855Z,7.80
2018-04-02T11:14:37.598Z,7.90
2018-04-02T11:17:04.328Z,7.90
2018-04-02T11:19:31.112Z,7.90
2018-04-02T11:21:58.495Z,7.80
2018-04-02T11:26:56.731Z,8.00
2018-04-02T11:29:23.586Z,7.90
2018-04-02T11:31:50.434Z,8.00
2018-04-02T11:34:16.616Z,8.00
2018-04-02T11:36:43.323Z,8.00
2018-04-02T11:39:11.013Z,8.00
2018-04-02T11:41:39.041Z,8.00
2018-04-02T11:44:05.022Z,8.00
2018-04-02T11:46:31.257Z,8.10
2018-04-02T11:48:57.991Z,8.10
2018-04-02T11:51:27.186Z,8.10
2018-04-02T11:53:55.676Z,8.20
2018-04-02T11:56:22.903Z,8.20
2018-04-02T11:58:48.897Z,8.30
2018-04-02T12:01:16.784Z,8.30
2018-04-02T12:03:50.762Z,8.20
2018-04-02T12:06:17.468Z,8.40
2018-04-02T12:08:43.595Z,8.30
2018-04-02T12:13:52.896Z,8.50
2018-04-02T12:16:18.858Z,8.60
2018-04-02T12:18:44.910Z,8.60
2018-04-02T12:21:10.942Z,8.60
2018-04-02T12:23:36.974Z,8.60
2018-04-02T12:26:12.177Z,8.70
2018-04-02T12:28:39.578Z,8.80
2018-04-02T12:31:05.557Z,8.80
2018-04-02T12:33:31.519Z,8.80
2018-04-02T12:35:57.547Z,8.80
2018-04-02T12:38:23.555Z,8.80
2018-04-02T12:40:49.566Z,8.80
2018-04-02T12:43:15.587Z,8.80
2018-04-02T12:45:41.589Z,8.80
2018-04-02T12:48:07.571Z,8.90
2018-04-02T12:50:34.376Z,8.90
2018-04-02T12:53:00.329Z,8.90
2018-04-02T12:58:29.392Z,8.90
2018-04-02T13:00:55.436Z,8.90
2018-04-02T13:03:21.424Z,8.90
2018-04-02T13:05:48.636Z,8.90
2018-04-02T13:08:15.268Z,8.90
2018-04-02T13:10:42.104Z,8.90
2018-04-02T13:13:08.026Z,8.90
2018-04-02T13:15:36.583Z,8.90
2018-04-02T13:18:03.144Z,8.90
2018-04-02T13:20:30.234Z,8.90
2018-04-02T13:22:56.202Z,8.90
2018-04-02T13:25:22.904Z,8.90
2018-04-02T13:27:48.877Z,8.90
2018-04-02T13:30:15.631Z,8.90
2018-04-02T13:32:42.651Z,8.90
2018-04-02T13:35:08.636Z,8.90
2018-04-02T13:37:34.645Z,8.90
2018-04-02T13:40:00.710Z,9.00
2018-04-02T13:42:26.687Z,9.00
2018-04-02T13:44:53.356Z,9.00
2018-04-02T13:47:19.342Z,9.10
2018-04-02T13:49:45.429Z,9.10
2018-04-02T13:52:11.413Z,9.20
2018-04-02T13:54:38.181Z,9.30
2018-04-02T13:57:04.147Z,9.30
2018-04-02T14:02:08.173Z,9.30
2018-04-02T14:04:34.889Z,9.40
2018-04-02T14:07:01.762Z,9.40
2018-04-02T14:09:27.864Z,9.50
2018-04-02T14:11:54.603Z,9.50
2018-04-02T14:14:21.389Z,9.60
2018-04-02T14:16:47.388Z,9.60
2018-04-02T14:19:13.996Z,9.60
2018-04-02T14:21:40.709Z,9.80
2018-04-02T14:24:09.051Z,9.70
2018-04-02T14:26:36.795Z,9.90
2018-04-02T14:29:06.438Z,10.00
2018-04-02T14:31:32.632Z,10.00
2018-04-02T14:33:58.653Z,10.10
2018-04-02T14:36:24.790Z,10.10
2018-04-02T14:38:50.965Z,10.10
2018-04-02T14:41:17.729Z,10.10
2018-04-02T14:43:54.714Z,10.10
2018-04-02T14:46:20.770Z,10.20
2018-04-02T14:48:46.724Z,10.20
2018-04-02T14:51:13.514Z,10.20
2018-04-02T14:53:39.523Z,10.20
2018-04-02T14:56:05.535Z,10.20
2018-04-02T14:58:31.494Z,10.20
2018-04-02T15:00:57.554Z,10.20
2018-04-02T15:03:23.880Z,10.20
2018-04-02T15:05:49.818Z,10.20
2018-04-02T15:08:15.777Z,10.30
2018-04-02T15:10:44.292Z,10.40
2018-04-02T15:13:10.273Z,10.50
2018-04-02T15:15:37.232Z,10.60
2018-04-02T15:18:04.917Z,10.70
2018-04-02T15:20:30.958Z,10.70
2018-04-02T15:23:00.322Z,10.80
2018-04-02T15:25:26.317Z,10.80
2018-04-02T15:27:58.492Z,10.90
2018-04-02T15:30:25.248Z,10.90
2018-04-02T15:32:51.276Z,10.90
2018-04-02T15:35:17.216Z,10.90
2018-04-02T15:37:43.199Z,10.80
2018-04-02T15:40:09.249Z,10.80
2018-04-02T15:42:35.244Z,10.80
2018-04-02T15:45:01.216Z,10.80
2018-04-02T15:47:27.977Z,10.80
2018-04-02T15:49:54.727Z,10.80
2018-04-02T15:52:21.433Z,10.80
2018-04-02T15:54:47.421Z,10.80
2018-04-02T15:57:13.409Z,10.80
2018-04-02T15:59:39.445Z,10.80
2018-04-02T16:02:05.422Z,10.80
2018-04-02T16:04:32.223Z,10.80
2018-04-02T16:06:58.235Z,10.80
2018-04-02T16:09:24.317Z,10.80
2018-04-02T16:11:51.049Z,10.80
2018-04-02T16:14:17.734Z,10.80
2018-04-02T16:16:44.419Z,10.80
2018-04-02T16:19:11.149Z,10.80
2018-04-02T16:21:37.927Z,10.90
2018-04-02T16:24:03.904Z,10.90
2018-04-02T16:26:30.623Z,10.90
2018-04-02T16:28:57.373Z,10.80
2018-04-02T16:31:27.751Z,10.80
2018-04-02T16:33:53.733Z,10.80
2018-04-02T16:36:19.748Z,10.80
2018-04-02T16:38:46.566Z,10.80
2018-04-02T16:41:12.544Z,10.80
2018-04-02T16:43:38.527Z,10.80
2018-04-02T16:46:05.254Z,10.80
2018-04-02T16:48:33.300Z,10.80
2018-04-02T16:50:59.291Z,10.80
2018-04-02T16:53:25.283Z,10.80
2018-04-02T16:55:51.258Z,10.90
2018-04-02T16:58:17.236Z,10.90
2018-04-02T17:00:43.964Z,10.80
2018-04-02T17:03:10.606Z,10.80
2018-04-02T17:05:36.613Z,10.80
2018-04-02T17:08:02.591Z,10.80
2018-04-02T17:14:19.447Z,10.80
2018-04-02T17:16:45.481Z,10.80
2018-04-02T17:19:11.520Z,10.80
2018-04-02T17:21:37.675Z,10.70
2018-04-02T17:24:05.582Z,10.70
2018-04-02T17:26:31.788Z,10.70
2018-04-02T17:28:58.493Z,10.70
2018-04-02T17:31:24.624Z,10.70
2018-04-02T17:33:50.719Z,10.80
2018-04-02T17:36:17.720Z,10.70
2018-04-02T17:38:44.928Z,10.80
2018-04-02T17:41:11.256Z,10.70
2018-04-02T17:43:37.261Z,10.80
2018-04-02T17:46:03.630Z,10.70
2018-04-02T17:48:30.388Z,10.70
2018-04-02T17:50:59.222Z,10.70
2018-04-02T17:53:25.581Z,10.70
2018-04-02T17:55:51.592Z,10.70
2018-04-02T17:58:18.386Z,10.60
2018-04-02T18:00:44.407Z,10.60
2018-04-02T18:03:10.378Z,10.60
2018-04-02T18:05:37.129Z,10.70
2018-04-02T18:08:03.996Z,10.70
2018-04-02T18:10:30.646Z,10.70
2018-04-02T18:12:56.651Z,10.60
2018-04-02T18:15:22.641Z,10.60
2018-04-02T18:17:48.614Z,10.60
2018-04-02T18:20:14.693Z,10.60
2018-04-02T18:22:40.710Z,10.70
2018-04-02T18:25:06.681Z,10.60
2018-04-02T18:27:32.863Z,10.70
2018-04-02T18:29:58.900Z,10.60
2018-04-02T18:32:24.900Z,10.60
2018-04-02T18:34:51.411Z,10.60
2018-04-02T18:37:17.417Z,10.70
2018-04-02T18:39:45.828Z,10.70
2018-04-02T18:42:12.169Z,10.60
2018-04-02T18:44:39.282Z,10.70
2018-04-02T18:47:08.295Z,10.60
2018-04-02T18:49:35.255Z,10.70
2018-04-02T18:52:04.627Z,10.70
2018-04-02T18:54:30.659Z,10.70
2018-04-02T18:56:56.647Z,10.70
2018-04-02T18:59:22.598Z,10.70
2018-04-02T19:01:48.640Z,10.70
2018-04-02T19:04:19.145Z,10.70
2018-04-02T19:06:45.187Z,10.70
2018-04-02T19:09:13.319Z,10.80
2018-04-02T19:11:39.919Z,10.80
2018-04-02T19:14:08.103Z,10.70
2018-04-02T19:16:34.058Z,10.70
2018-04-02T19:19:00.285Z,10.70
2018-04-02T19:21:26.284Z,10.70
2018-04-02T19:23:53.260Z,10.70
2018-04-02T19:26:20.698Z,10.70
2018-04-02T19:28:46.689Z,10.70
2018-04-02T19:31:13.327Z,10.70
2018-04-02T19:33:39.306Z,10.60
2018-04-02T19:36:05.387Z,10.60
2018-04-02T19:38:31.368Z,10.60
2018-04-02T19:40:58.554Z,10.60
2018-04-02T19:43:24.595Z,10.60
2018-04-02T19:45:50.608Z,10.60
2018-04-02T19:48:16.586Z,10.60
2018-04-02T19:50:42.640Z,10.60
2018-04-02T19:53:08.652Z,10.60
2018-04-02T19:55:36.191Z,10.60
2018-04-02T19:58:02.201Z,10.50
2018-04-02T20:00:28.492Z,10.50
2018-04-02T20:02:56.085Z,10.60
